sensor_id;sensor_type;location;lat;lon;timestamp;P1;durP1;ratioP1;P2;durP2;ratioP2
50291;SDS011;36190;54.980;73.388;2023-04-16T00:02:06;9.55;;;3.30;;
50291;SDS011;36190;54.980;73.388;2023-04-16T00:04:34;13.32;;;3.92;;
50291;SDS011;36190;54.980;73.388;2023-04-16T00:07:01;9.43;;;3.05;;
50291;SDS011;36190;54.980;73.388;2023-04-16T00:09:29;13.30;;;3.85;;
50291;SDS011;36190;54.980;73.388;2023-04-16T00:11:56;10.90;;;3.65;;
50291;SDS011;36190;54.980;73.388;2023-04-16T00:14:25;18.70;;;5.78;;
50291;SDS011;36190;54.980;73.388;2023-04-16T00:16:52;12.43;;;3.65;;
50291;SDS011;36190;54.980;73.388;2023-04-16T00:19:20;10.65;;;3.20;;
50291;SDS011;36190;54.980;73.388;2023-04-16T00:21:47;8.55;;;3.22;;
50291;SDS011;36190;54.980;73.388;2023-04-16T00:24:15;12.20;;;3.67;;
50291;SDS011;36190;54.980;73.388;2023-04-16T00:26:42;9.68;;;3.17;;
50291;SDS011;36190;54.980;73.388;2023-04-16T00:29:10;10.60;;;3.30;;
50291;SDS011;36190;54.980;73.388;2023-04-16T00:31:39;11.40;;;3.33;;
50291;SDS011;36190;54.980;73.388;2023-04-16T00:34:06;13.82;;;3.30;;
50291;SDS011;36190;54.980;73.388;2023-04-16T00:36:34;13.57;;;3.13;;
50291;SDS011;36190;54.980;73.388;2023-04-16T00:39:02;18.48;;;3.50;;
50291;SDS011;36190;54.980;73.388;2023-04-16T00:41:30;8.15;;;3.22;;
50291;SDS011;36190;54.980;73.388;2023-04-16T00:43:57;10.55;;;3.13;;
50291;SDS011;36190;54.980;73.388;2023-04-16T00:46:25;14.27;;;3.20;;
50291;SDS011;36190;54.980;73.388;2023-04-16T00:48:54;11.48;;;3.08;;
50291;SDS011;36190;54.980;73.388;2023-04-16T00:51:22;10.00;;;3.22;;
50291;SDS011;36190;54.980;73.388;2023-04-16T00:53:49;9.43;;;3.25;;
50291;SDS011;36190;54.980;73.388;2023-04-16T00:56:17;10.57;;;3.00;;
50291;SDS011;36190;54.980;73.388;2023-04-16T00:58:46;12.57;;;3.47;;
50291;SDS011;36190;54.980;73.388;2023-04-16T01:01:14;9.30;;;3.33;;
50291;SDS011;36190;54.980;73.388;2023-04-16T01:03:42;14.95;;;3.65;;
50291;SDS011;36190;54.980;73.388;2023-04-16T01:06:12;10.57;;;4.03;;
50291;SDS011;36190;54.980;73.388;2023-04-16T01:08:40;9.75;;;3.35;;
50291;SDS011;36190;54.980;73.388;2023-04-16T01:11:08;6.95;;;2.78;;
50291;SDS011;36190;54.980;73.388;2023-04-16T01:13:36;12.88;;;3.33;;
50291;SDS011;36190;54.980;73.388;2023-04-16T01:16:04;10.00;;;3.30;;
50291;SDS011;36190;54.980;73.388;2023-04-16T01:18:32;10.05;;;3.17;;
50291;SDS011;36190;54.980;73.388;2023-04-16T01:21:02;12.25;;;3.67;;
50291;SDS011;36190;54.980;73.388;2023-04-16T01:23:30;14.35;;;3.45;;
50291;SDS011;36190;54.980;73.388;2023-04-16T01:25:57;9.10;;;2.95;;
50291;SDS011;36190;54.980;73.388;2023-04-16T01:28:25;10.95;;;3.45;;
50291;SDS011;36190;54.980;73.388;2023-04-16T01:30:53;9.70;;;3.00;;
50291;SDS011;36190;54.980;73.388;2023-04-16T01:33:20;9.15;;;3.47;;
50291;SDS011;36190;54.980;73.388;2023-04-16T01:35:48;9.35;;;3.28;;
50291;SDS011;36190;54.980;73.388;2023-04-16T01:38:17;12.70;;;3.63;;
50291;SDS011;36190;54.980;73.388;2023-04-16T01:40:44;10.55;;;4.43;;
50291;SDS011;36190;54.980;73.388;2023-04-16T01:43:11;12.07;;;3.72;;
50291;SDS011;36190;54.980;73.388;2023-04-16T01:45:39;12.23;;;4.00;;
50291;SDS011;36190;54.980;73.388;2023-04-16T01:48:06;16.50;;;4.10;;
50291;SDS011;36190;54.980;73.388;2023-04-16T01:50:34;11.40;;;3.50;;
50291;SDS011;36190;54.980;73.388;2023-04-16T01:53:02;9.48;;;3.50;;
50291;SDS011;36190;54.980;73.388;2023-04-16T01:55:32;13.98;;;4.60;;
50291;SDS011;36190;54.980;73.388;2023-04-16T01:57:59;12.75;;;4.10;;
50291;SDS011;36190;54.980;73.388;2023-04-16T02:00:27;9.98;;;3.88;;
50291;SDS011;36190;54.980;73.388;2023-04-16T02:02:54;11.77;;;3.92;;
50291;SDS011;36190;54.980;73.388;2023-04-16T02:05:22;11.27;;;3.72;;
50291;SDS011;36190;54.980;73.388;2023-04-16T02:07:50;8.68;;;3.60;;
50291;SDS011;36190;54.980;73.388;2023-04-16T02:10:17;9.77;;;3.75;;
50291;SDS011;36190;54.980;73.388;2023-04-16T02:12:46;13.93;;;4.20;;
50291;SDS011;36190;54.980;73.388;2023-04-16T02:15:13;15.02;;;5.38;;
50291;SDS011;36190;54.980;73.388;2023-04-16T02:17:42;11.02;;;3.42;;
50291;SDS011;36190;54.980;73.388;2023-04-16T02:20:10;9.18;;;3.50;;
50291;SDS011;36190;54.980;73.388;2023-04-16T02:22:38;8.18;;;2.72;;
50291;SDS011;36190;54.980;73.388;2023-04-16T02:25:07;5.97;;;3.00;;
50291;SDS011;36190;54.980;73.388;2023-04-16T02:27:34;7.57;;;2.95;;
50291;SDS011;36190;54.980;73.388;2023-04-16T02:30:04;7.53;;;2.90;;
50291;SDS011;36190;54.980;73.388;2023-04-16T02:32:32;6.72;;;2.55;;
50291;SDS011;36190;54.980;73.388;2023-04-16T02:34:59;7.53;;;2.30;;
50291;SDS011;36190;54.980;73.388;2023-04-16T02:37:28;9.90;;;3.53;;
50291;SDS011;36190;54.980;73.388;2023-04-16T02:39:55;10.15;;;2.83;;
50291;SDS011;36190;54.980;73.388;2023-04-16T02:42:23;7.20;;;2.72;;
50291;SDS011;36190;54.980;73.388;2023-04-16T02:44:50;7.30;;;2.65;;
50291;SDS011;36190;54.980;73.388;2023-04-16T02:47:19;11.65;;;2.97;;
50291;SDS011;36190;54.980;73.388;2023-04-16T02:49:47;11.55;;;2.78;;
50291;SDS011;36190;54.980;73.388;2023-04-16T02:52:14;6.97;;;2.40;;
50291;SDS011;36190;54.980;73.388;2023-04-16T02:54:42;7.95;;;2.70;;
50291;SDS011;36190;54.980;73.388;2023-04-16T02:57:10;7.85;;;2.55;;
50291;SDS011;36190;54.980;73.388;2023-04-16T02:59:37;8.38;;;3.10;;
50291;SDS011;36190;54.980;73.388;2023-04-16T03:02:05;5.90;;;2.40;;
50291;SDS011;36190;54.980;73.388;2023-04-16T03:04:33;11.30;;;3.00;;
50291;SDS011;36190;54.980;73.388;2023-04-16T03:07:01;8.95;;;2.63;;
50291;SDS011;36190;54.980;73.388;2023-04-16T03:09:28;7.85;;;3.00;;
50291;SDS011;36190;54.980;73.388;2023-04-16T03:11:56;8.35;;;2.30;;
50291;SDS011;36190;54.980;73.388;2023-04-16T03:14:23;5.90;;;2.40;;
50291;SDS011;36190;54.980;73.388;2023-04-16T03:16:51;9.38;;;3.17;;
50291;SDS011;36190;54.980;73.388;2023-04-16T03:19:18;8.40;;;3.00;;
50291;SDS011;36190;54.980;73.388;2023-04-16T03:21:47;7.05;;;2.45;;
50291;SDS011;36190;54.980;73.388;2023-04-16T03:24:14;5.90;;;2.13;;
50291;SDS011;36190;54.980;73.388;2023-04-16T03:26:42;6.95;;;2.90;;
50291;SDS011;36190;54.980;73.388;2023-04-16T03:29:09;7.50;;;2.80;;
50291;SDS011;36190;54.980;73.388;2023-04-16T03:31:37;9.80;;;3.20;;
50291;SDS011;36190;54.980;73.388;2023-04-16T03:34:05;7.63;;;2.50;;
50291;SDS011;36190;54.980;73.388;2023-04-16T03:36:33;5.97;;;2.55;;
50291;SDS011;36190;54.980;73.388;2023-04-16T03:39:02;7.68;;;2.60;;
50291;SDS011;36190;54.980;73.388;2023-04-16T03:41:29;5.35;;;2.15;;
50291;SDS011;36190;54.980;73.388;2023-04-16T03:43:57;4.28;;;2.22;;
50291;SDS011;36190;54.980;73.388;2023-04-16T03:46:24;7.75;;;2.55;;
50291;SDS011;36190;54.980;73.388;2023-04-16T03:48:52;7.65;;;2.40;;
50291;SDS011;36190;54.980;73.388;2023-04-16T03:51:19;6.20;;;2.40;;
50291;SDS011;36190;54.980;73.388;2023-04-16T03:53:47;5.30;;;2.10;;
50291;SDS011;36190;54.980;73.388;2023-04-16T03:56:16;3.55;;;1.83;;
50291;SDS011;36190;54.980;73.388;2023-04-16T03:58:43;8.38;;;2.20;;
50291;SDS011;36190;54.980;73.388;2023-04-16T04:01:11;5.13;;;2.13;;
50291;SDS011;36190;54.980;73.388;2023-04-16T04:03:38;7.90;;;1.88;;
50291;SDS011;36190;54.980;73.388;2023-04-16T04:06:06;3.50;;;1.77;;
50291;SDS011;36190;54.980;73.388;2023-04-16T04:08:34;7.30;;;2.40;;
50291;SDS011;36190;54.980;73.388;2023-04-16T04:11:01;5.38;;;2.20;;
50291;SDS011;36190;54.980;73.388;2023-04-16T04:13:30;6.25;;;2.40;;
50291;SDS011;36190;54.980;73.388;2023-04-16T04:15:57;7.70;;;2.17;;
50291;SDS011;36190;54.980;73.388;2023-04-16T04:18:25;3.17;;;1.88;;
50291;SDS011;36190;54.980;73.388;2023-04-16T04:20:52;5.25;;;2.00;;
50291;SDS011;36190;54.980;73.388;2023-04-16T04:23:20;7.50;;;4.38;;
50291;SDS011;36190;54.980;73.388;2023-04-16T04:25:47;8.35;;;2.10;;
50291;SDS011;36190;54.980;73.388;2023-04-16T04:28:15;5.22;;;2.00;;
50291;SDS011;36190;54.980;73.388;2023-04-16T04:30:44;3.17;;;1.80;;
50291;SDS011;36190;54.980;73.388;2023-04-16T04:33:11;4.18;;;1.85;;
50291;SDS011;36190;54.980;73.388;2023-04-16T04:35:38;9.43;;;1.90;;
50291;SDS011;36190;54.980;73.388;2023-04-16T04:38:06;6.57;;;2.03;;
50291;SDS011;36190;54.980;73.388;2023-04-16T04:40:34;4.00;;;1.73;;
50291;SDS011;36190;54.980;73.388;2023-04-16T04:43:01;9.82;;;2.20;;
50291;SDS011;36190;54.980;73.388;2023-04-16T04:45:29;4.70;;;1.65;;
50291;SDS011;36190;54.980;73.388;2023-04-16T04:47:58;7.55;;;1.95;;
50291;SDS011;36190;54.980;73.388;2023-04-16T04:50:25;7.57;;;2.20;;
50291;SDS011;36190;54.980;73.388;2023-04-16T04:52:53;11.00;;;2.20;;
50291;SDS011;36190;54.980;73.388;2023-04-16T04:55:21;5.25;;;2.00;;
50291;SDS011;36190;54.980;73.388;2023-04-16T04:57:49;5.22;;;1.95;;
50291;SDS011;36190;54.980;73.388;2023-04-16T05:00:16;4.47;;;2.25;;
50291;SDS011;36190;54.980;73.388;2023-04-16T05:02:43;2.72;;;1.65;;
50291;SDS011;36190;54.980;73.388;2023-04-16T05:05:13;3.53;;;1.73;;
50291;SDS011;36190;54.980;73.388;2023-04-16T05:07:40;4.60;;;1.88;;
50291;SDS011;36190;54.980;73.388;2023-04-16T05:10:08;5.80;;;2.08;;
50291;SDS011;36190;54.980;73.388;2023-04-16T05:12:35;8.30;;;2.05;;
50291;SDS011;36190;54.980;73.388;2023-04-16T05:15:04;5.85;;;2.13;;
50291;SDS011;36190;54.980;73.388;2023-04-16T05:17:32;17.67;;;2.83;;
50291;SDS011;36190;54.980;73.388;2023-04-16T05:20:00;5.05;;;2.50;;
50291;SDS011;36190;54.980;73.388;2023-04-16T05:22:29;9.10;;;2.67;;
50291;SDS011;36190;54.980;73.388;2023-04-16T05:24:56;8.13;;;2.22;;
50291;SDS011;36190;54.980;73.388;2023-04-16T05:27:23;3.83;;;2.00;;
50291;SDS011;36190;54.980;73.388;2023-04-16T05:29:51;4.40;;;2.08;;
50291;SDS011;36190;54.980;73.388;2023-04-16T05:32:18;7.22;;;2.10;;
50291;SDS011;36190;54.980;73.388;2023-04-16T05:34:46;7.05;;;2.28;;
50291;SDS011;36190;54.980;73.388;2023-04-16T05:37:13;6.13;;;2.30;;
50291;SDS011;36190;54.980;73.388;2023-04-16T05:39:42;7.75;;;2.47;;
50291;SDS011;36190;54.980;73.388;2023-04-16T05:42:10;4.55;;;1.65;;
50291;SDS011;36190;54.980;73.388;2023-04-16T05:44:37;3.38;;;1.80;;
50291;SDS011;36190;54.980;73.388;2023-04-16T05:47:06;5.22;;;1.80;;
50291;SDS011;36190;54.980;73.388;2023-04-16T05:49:34;6.57;;;1.92;;
50291;SDS011;36190;54.980;73.388;2023-04-16T05:52:01;7.13;;;2.10;;
50291;SDS011;36190;54.980;73.388;2023-04-16T05:54:29;5.40;;;2.15;;
50291;SDS011;36190;54.980;73.388;2023-04-16T05:56:58;8.77;;;1.95;;
50291;SDS011;36190;54.980;73.388;2023-04-16T05:59:26;4.18;;;2.00;;
50291;SDS011;36190;54.980;73.388;2023-04-16T06:01:55;6.20;;;2.80;;
50291;SDS011;36190;54.980;73.388;2023-04-16T06:04:22;5.65;;;2.13;;
50291;SDS011;36190;54.980;73.388;2023-04-16T06:06:50;7.28;;;3.17;;
50291;SDS011;36190;54.980;73.388;2023-04-16T06:09:17;7.18;;;2.00;;
50291;SDS011;36190;54.980;73.388;2023-04-16T06:11:45;5.15;;;1.70;;
50291;SDS011;36190;54.980;73.388;2023-04-16T06:14:14;6.38;;;2.28;;
50291;SDS011;36190;54.980;73.388;2023-04-16T06:16:41;6.00;;;1.90;;
50291;SDS011;36190;54.980;73.388;2023-04-16T06:19:09;5.60;;;2.00;;
50291;SDS011;36190;54.980;73.388;2023-04-16T06:21:36;8.95;;;2.03;;
50291;SDS011;36190;54.980;73.388;2023-04-16T06:24:04;6.00;;;2.10;;
50291;SDS011;36190;54.980;73.388;2023-04-16T06:26:32;16.05;;;3.08;;
50291;SDS011;36190;54.980;73.388;2023-04-16T06:28:59;4.43;;;1.85;;
50291;SDS011;36190;54.980;73.388;2023-04-16T06:31:28;5.95;;;1.92;;
50291;SDS011;36190;54.980;73.388;2023-04-16T06:33:55;5.07;;;2.10;;
50291;SDS011;36190;54.980;73.388;2023-04-16T06:36:23;4.78;;;1.85;;
50291;SDS011;36190;54.980;73.388;2023-04-16T06:38:51;4.07;;;1.70;;
50291;SDS011;36190;54.980;73.388;2023-04-16T06:41:19;5.32;;;1.83;;
50291;SDS011;36190;54.980;73.388;2023-04-16T06:43:47;8.20;;;1.95;;
50291;SDS011;36190;54.980;73.388;2023-04-16T06:46:14;9.43;;;2.25;;
50291;SDS011;36190;54.980;73.388;2023-04-16T06:48:43;6.90;;;2.25;;
50291;SDS011;36190;54.980;73.388;2023-04-16T06:51:11;9.05;;;2.35;;
50291;SDS011;36190;54.980;73.388;2023-04-16T06:53:38;4.78;;;1.92;;
50291;SDS011;36190;54.980;73.388;2023-04-16T06:56:07;4.18;;;1.70;;
50291;SDS011;36190;54.980;73.388;2023-04-16T06:58:34;5.57;;;2.35;;
50291;SDS011;36190;54.980;73.388;2023-04-16T07:01:02;1.88;;;1.60;;
50291;SDS011;36190;54.980;73.388;2023-04-16T07:03:30;4.40;;;1.90;;
50291;SDS011;36190;54.980;73.388;2023-04-16T07:05:59;11.68;;;2.25;;
50291;SDS011;36190;54.980;73.388;2023-04-16T07:08:26;7.85;;;2.33;;
50291;SDS011;36190;54.980;73.388;2023-04-16T07:10:54;16.20;;;2.55;;
50291;SDS011;36190;54.980;73.388;2023-04-16T07:13:21;9.05;;;2.80;;
50291;SDS011;36190;54.980;73.388;2023-04-16T07:15:49;7.35;;;2.30;;
50291;SDS011;36190;54.980;73.388;2023-04-16T07:18:16;10.13;;;2.42;;
50291;SDS011;36190;54.980;73.388;2023-04-16T07:20:44;6.25;;;2.22;;
50291;SDS011;36190;54.980;73.388;2023-04-16T07:23:13;4.13;;;2.10;;
50291;SDS011;36190;54.980;73.388;2023-04-16T07:25:40;4.05;;;1.90;;
50291;SDS011;36190;54.980;73.388;2023-04-16T07:28:07;8.05;;;1.85;;
50291;SDS011;36190;54.980;73.388;2023-04-16T07:30:35;5.20;;;2.00;;
50291;SDS011;36190;54.980;73.388;2023-04-16T07:33:02;7.85;;;2.85;;
50291;SDS011;36190;54.980;73.388;2023-04-16T07:35:30;7.65;;;2.40;;
50291;SDS011;36190;54.980;73.388;2023-04-16T07:37:58;12.40;;;2.80;;
50291;SDS011;36190;54.980;73.388;2023-04-16T07:40:27;9.65;;;2.70;;
50291;SDS011;36190;54.980;73.388;2023-04-16T07:42:54;7.53;;;2.70;;
50291;SDS011;36190;54.980;73.388;2023-04-16T07:45:22;9.63;;;2.47;;
50291;SDS011;36190;54.980;73.388;2023-04-16T07:47:49;10.82;;;3.03;;
50291;SDS011;36190;54.980;73.388;2023-04-16T07:50:17;5.35;;;2.35;;
50291;SDS011;36190;54.980;73.388;2023-04-16T07:52:45;6.35;;;2.28;;
50291;SDS011;36190;54.980;73.388;2023-04-16T07:55:13;9.98;;;2.70;;
50291;SDS011;36190;54.980;73.388;2023-04-16T07:57:42;9.30;;;2.78;;
50291;SDS011;36190;54.980;73.388;2023-04-16T08:00:09;10.30;;;3.00;;
50291;SDS011;36190;54.980;73.388;2023-04-16T08:02:37;11.82;;;3.45;;
50291;SDS011;36190;54.980;73.388;2023-04-16T08:05:05;10.40;;;2.78;;
50291;SDS011;36190;54.980;73.388;2023-04-16T08:07:33;8.38;;;2.67;;
50291;SDS011;36190;54.980;73.388;2023-04-16T08:10:01;8.23;;;2.42;;
50291;SDS011;36190;54.980;73.388;2023-04-16T08:12:28;7.68;;;2.50;;
50291;SDS011;36190;54.980;73.388;2023-04-16T08:14:57;11.20;;;2.33;;
50291;SDS011;36190;54.980;73.388;2023-04-16T08:17:24;2.97;;;1.73;;
50291;SDS011;36190;54.980;73.388;2023-04-16T08:19:52;4.85;;;2.10;;
50291;SDS011;36190;54.980;73.388;2023-04-16T08:22:20;7.43;;;2.22;;
50291;SDS011;36190;54.980;73.388;2023-04-16T08:24:48;4.68;;;2.00;;
50291;SDS011;36190;54.980;73.388;2023-04-16T08:27:15;6.20;;;2.47;;
50291;SDS011;36190;54.980;73.388;2023-04-16T08:29:42;7.40;;;2.22;;
50291;SDS011;36190;54.980;73.388;2023-04-16T08:32:11;6.43;;;2.20;;
50291;SDS011;36190;54.980;73.388;2023-04-16T08:34:39;5.38;;;2.33;;
50291;SDS011;36190;54.980;73.388;2023-04-16T08:37:08;6.65;;;1.60;;
50291;SDS011;36190;54.980;73.388;2023-04-16T08:39:35;5.10;;;2.00;;
50291;SDS011;36190;54.980;73.388;2023-04-16T08:42:03;3.72;;;1.70;;
50291;SDS011;36190;54.980;73.388;2023-04-16T08:44:32;5.82;;;1.95;;
50291;SDS011;36190;54.980;73.388;2023-04-16T08:47:03;7.28;;;2.10;;
50291;SDS011;36190;54.980;73.388;2023-04-16T08:49:36;6.45;;;2.03;;
50291;SDS011;36190;54.980;73.388;2023-04-16T08:52:09;4.97;;;1.90;;
50291;SDS011;36190;54.980;73.388;2023-04-16T08:54:42;4.13;;;1.95;;
50291;SDS011;36190;54.980;73.388;2023-04-16T08:57:15;6.05;;;2.40;;
50291;SDS011;36190;54.980;73.388;2023-04-16T08:59:46;6.85;;;2.03;;
50291;SDS011;36190;54.980;73.388;2023-04-16T09:02:14;4.10;;;2.28;;
50291;SDS011;36190;54.980;73.388;2023-04-16T09:04:43;2.90;;;1.90;;
50291;SDS011;36190;54.980;73.388;2023-04-16T09:07:12;3.70;;;1.83;;
50291;SDS011;36190;54.980;73.388;2023-04-16T09:09:42;4.75;;;2.05;;
50291;SDS011;36190;54.980;73.388;2023-04-16T09:12:10;3.58;;;1.67;;
50291;SDS011;36190;54.980;73.388;2023-04-16T09:14:38;3.50;;;1.92;;
50291;SDS011;36190;54.980;73.388;2023-04-16T09:17:07;4.43;;;1.95;;
50291;SDS011;36190;54.980;73.388;2023-04-16T09:19:36;6.05;;;2.08;;
50291;SDS011;36190;54.980;73.388;2023-04-16T09:22:05;3.10;;;1.90;;
50291;SDS011;36190;54.980;73.388;2023-04-16T09:24:33;8.00;;;2.20;;
50291;SDS011;36190;54.980;73.388;2023-04-16T09:27:02;6.93;;;2.30;;
50291;SDS011;36190;54.980;73.388;2023-04-16T09:29:33;10.82;;;3.20;;
50291;SDS011;36190;54.980;73.388;2023-04-16T09:32:01;11.50;;;2.85;;
50291;SDS011;36190;54.980;73.388;2023-04-16T09:34:31;15.73;;;2.83;;
50291;SDS011;36190;54.980;73.388;2023-04-16T09:39:51;9.30;;;2.50;;
50291;SDS011;36190;54.980;73.388;2023-04-16T09:42:20;6.63;;;2.05;;
50291;SDS011;36190;54.980;73.388;2023-04-16T09:44:50;5.32;;;2.17;;
50291;SDS011;36190;54.980;73.388;2023-04-16T09:47:18;4.38;;;2.00;;
50291;SDS011;36190;54.980;73.388;2023-04-16T09:49:46;8.93;;;2.50;;
50291;SDS011;36190;54.980;73.388;2023-04-16T09:52:13;4.60;;;1.90;;
50291;SDS011;36190;54.980;73.388;2023-04-16T09:54:47;4.15;;;2.08;;
50291;SDS011;36190;54.980;73.388;2023-04-16T09:57:17;3.70;;;1.90;;
50291;SDS011;36190;54.980;73.388;2023-04-16T09:59:46;6.05;;;2.13;;
50291;SDS011;36190;54.980;73.388;2023-04-16T10:02:14;4.90;;;2.17;;
50291;SDS011;36190;54.980;73.388;2023-04-16T10:04:45;6.47;;;2.10;;
50291;SDS011;36190;54.980;73.388;2023-04-16T10:07:13;5.35;;;2.08;;
50291;SDS011;36190;54.980;73.388;2023-04-16T10:09:41;4.60;;;1.83;;
50291;SDS011;36190;54.980;73.388;2023-04-16T10:12:10;5.03;;;1.80;;
50291;SDS011;36190;54.980;73.388;2023-04-16T10:14:38;8.23;;;2.50;;
50291;SDS011;36190;54.980;73.388;2023-04-16T10:17:06;6.95;;;2.55;;
50291;SDS011;36190;54.980;73.388;2023-04-16T10:19:34;3.50;;;1.88;;
50291;SDS011;36190;54.980;73.388;2023-04-16T10:22:02;9.85;;;2.15;;
50291;SDS011;36190;54.980;73.388;2023-04-16T10:24:31;4.43;;;2.20;;
50291;SDS011;36190;54.980;73.388;2023-04-16T10:26:59;4.57;;;1.90;;
50291;SDS011;36190;54.980;73.388;2023-04-16T10:29:28;2.53;;;1.70;;
50291;SDS011;36190;54.980;73.388;2023-04-16T10:31:56;3.30;;;1.73;;
50291;SDS011;36190;54.980;73.388;2023-04-16T10:34:25;5.35;;;2.30;;
50291;SDS011;36190;54.980;73.388;2023-04-16T10:36:55;4.15;;;1.90;;
50291;SDS011;36190;54.980;73.388;2023-04-16T10:39:23;3.72;;;2.00;;
50291;SDS011;36190;54.980;73.388;2023-04-16T10:42:05;2.25;;;1.55;;
50291;SDS011;36190;54.980;73.388;2023-04-16T10:44:35;5.65;;;2.13;;
50291;SDS011;36190;54.980;73.388;2023-04-16T10:47:05;4.68;;;2.00;;
50291;SDS011;36190;54.980;73.388;2023-04-16T10:49:37;7.85;;;2.75;;
50291;SDS011;36190;54.980;73.388;2023-04-16T10:52:08;3.92;;;2.00;;
50291;SDS011;36190;54.980;73.388;2023-04-16T10:54:38;6.45;;;2.00;;
50291;SDS011;36190;54.980;73.388;2023-04-16T10:57:07;5.68;;;2.50;;
50291;SDS011;36190;54.980;73.388;2023-04-16T10:59:38;5.00;;;1.95;;
50291;SDS011;36190;54.980;73.388;2023-04-16T11:02:10;6.53;;;2.17;;
50291;SDS011;36190;54.980;73.388;2023-04-16T11:04:41;6.55;;;2.10;;
50291;SDS011;36190;54.980;73.388;2023-04-16T11:07:17;8.77;;;2.50;;
50291;SDS011;36190;54.980;73.388;2023-04-16T11:09:46;3.10;;;1.85;;
50291;SDS011;36190;54.980;73.388;2023-04-16T11:12:19;2.80;;;1.90;;
50291;SDS011;36190;54.980;73.388;2023-04-16T11:14:50;5.75;;;2.30;;
50291;SDS011;36190;54.980;73.388;2023-04-16T11:17:18;4.25;;;2.00;;
50291;SDS011;36190;54.980;73.388;2023-04-16T11:19:46;7.47;;;2.30;;
50291;SDS011;36190;54.980;73.388;2023-04-16T11:22:15;5.55;;;2.30;;
50291;SDS011;36190;54.980;73.388;2023-04-16T11:24:43;5.15;;;2.22;;
50291;SDS011;36190;54.980;73.388;2023-04-16T11:27:11;5.90;;;2.30;;
50291;SDS011;36190;54.980;73.388;2023-04-16T11:29:40;9.50;;;2.65;;
50291;SDS011;36190;54.980;73.388;2023-04-16T11:32:09;8.38;;;2.50;;
50291;SDS011;36190;54.980;73.388;2023-04-16T11:34:43;6.32;;;2.35;;
50291;SDS011;36190;54.980;73.388;2023-04-16T11:37:11;6.03;;;2.60;;
50291;SDS011;36190;54.980;73.388;2023-04-16T11:39:49;11.63;;;2.83;;
50291;SDS011;36190;54.980;73.388;2023-04-16T11:42:20;7.15;;;2.60;;
50291;SDS011;36190;54.980;73.388;2023-04-16T11:44:52;7.53;;;2.40;;
50291;SDS011;36190;54.980;73.388;2023-04-16T11:47:21;5.00;;;2.08;;
50291;SDS011;36190;54.980;73.388;2023-04-16T11:49:50;6.10;;;2.30;;
50291;SDS011;36190;54.980;73.388;2023-04-16T11:52:23;8.35;;;2.38;;
50291;SDS011;36190;54.980;73.388;2023-04-16T11:54:52;7.88;;;2.72;;
50291;SDS011;36190;54.980;73.388;2023-04-16T11:57:23;11.13;;;2.67;;
50291;SDS011;36190;54.980;73.388;2023-04-16T11:59:52;7.30;;;2.72;;
50291;SDS011;36190;54.980;73.388;2023-04-16T12:02:37;8.30;;;2.63;;
50291;SDS011;36190;54.980;73.388;2023-04-16T12:05:06;8.02;;;3.03;;
50291;SDS011;36190;54.980;73.388;2023-04-16T12:07:52;7.38;;;2.63;;
50291;SDS011;36190;54.980;73.388;2023-04-16T12:10:20;7.82;;;2.63;;
50291;SDS011;36190;54.980;73.388;2023-04-16T12:12:47;4.63;;;2.28;;
50291;SDS011;36190;54.980;73.388;2023-04-16T12:15:15;9.02;;;3.30;;
50291;SDS011;36190;54.980;73.388;2023-04-16T12:17:44;9.93;;;3.17;;
50291;SDS011;36190;54.980;73.388;2023-04-16T12:20:12;6.82;;;2.55;;
50291;SDS011;36190;54.980;73.388;2023-04-16T12:22:43;8.13;;;2.65;;
50291;SDS011;36190;54.980;73.388;2023-04-16T12:25:12;7.15;;;2.80;;
50291;SDS011;36190;54.980;73.388;2023-04-16T12:27:41;6.32;;;2.60;;
50291;SDS011;36190;54.980;73.388;2023-04-16T12:30:15;7.78;;;2.60;;
50291;SDS011;36190;54.980;73.388;2023-04-16T12:32:46;6.22;;;2.90;;
50291;SDS011;36190;54.980;73.388;2023-04-16T12:35:27;7.78;;;2.80;;
50291;SDS011;36190;54.980;73.388;2023-04-16T12:37:55;7.97;;;2.88;;
50291;SDS011;36190;54.980;73.388;2023-04-16T12:40:23;6.57;;;2.70;;
50291;SDS011;36190;54.980;73.388;2023-04-16T12:42:50;5.95;;;2.30;;
50291;SDS011;36190;54.980;73.388;2023-04-16T12:45:18;7.28;;;2.92;;
50291;SDS011;36190;54.980;73.388;2023-04-16T12:47:47;6.30;;;2.50;;
50291;SDS011;36190;54.980;73.388;2023-04-16T12:50:15;6.60;;;2.53;;
50291;SDS011;36190;54.980;73.388;2023-04-16T12:52:42;6.07;;;2.55;;
50291;SDS011;36190;54.980;73.388;2023-04-16T12:55:10;7.35;;;2.92;;
50291;SDS011;36190;54.980;73.388;2023-04-16T12:57:38;9.27;;;2.78;;
50291;SDS011;36190;54.980;73.388;2023-04-16T13:00:06;5.60;;;2.30;;
50291;SDS011;36190;54.980;73.388;2023-04-16T13:02:35;7.43;;;2.55;;
50291;SDS011;36190;54.980;73.388;2023-04-16T13:05:07;4.65;;;2.08;;
50291;SDS011;36190;54.980;73.388;2023-04-16T13:07:35;6.45;;;2.33;;
50291;SDS011;36190;54.980;73.388;2023-04-16T13:10:03;5.68;;;2.47;;
50291;SDS011;36190;54.980;73.388;2023-04-16T13:12:31;4.22;;;2.50;;
50291;SDS011;36190;54.980;73.388;2023-04-16T13:14:59;7.28;;;2.55;;
50291;SDS011;36190;54.980;73.388;2023-04-16T13:17:26;7.10;;;2.30;;
50291;SDS011;36190;54.980;73.388;2023-04-16T13:19:54;3.83;;;2.20;;
50291;SDS011;36190;54.980;73.388;2023-04-16T13:22:23;5.22;;;2.50;;
50291;SDS011;36190;54.980;73.388;2023-04-16T13:24:50;9.93;;;2.72;;
50291;SDS011;36190;54.980;73.388;2023-04-16T13:27:18;6.38;;;2.67;;
50291;SDS011;36190;54.980;73.388;2023-04-16T13:29:45;5.03;;;2.40;;
50291;SDS011;36190;54.980;73.388;2023-04-16T13:32:13;7.57;;;2.90;;
50291;SDS011;36190;54.980;73.388;2023-04-16T13:34:41;8.98;;;2.92;;
50291;SDS011;36190;54.980;73.388;2023-04-16T13:37:08;6.97;;;2.58;;
50291;SDS011;36190;54.980;73.388;2023-04-16T13:39:37;9.88;;;2.80;;
50291;SDS011;36190;54.980;73.388;2023-04-16T13:42:04;8.35;;;2.67;;
50291;SDS011;36190;54.980;73.388;2023-04-16T13:44:32;7.55;;;2.60;;
50291;SDS011;36190;54.980;73.388;2023-04-16T13:46:59;6.38;;;2.72;;
50291;SDS011;36190;54.980;73.388;2023-04-16T13:49:27;7.03;;;2.67;;
50291;SDS011;36190;54.980;73.388;2023-04-16T13:51:55;8.10;;;2.90;;
50291;SDS011;36190;54.980;73.388;2023-04-16T13:54:22;5.82;;;2.63;;
50291;SDS011;36190;54.980;73.388;2023-04-16T13:56:51;7.93;;;2.70;;
50291;SDS011;36190;54.980;73.388;2023-04-16T13:59:19;9.50;;;3.08;;
50291;SDS011;36190;54.980;73.388;2023-04-16T14:01:47;9.63;;;3.00;;
50291;SDS011;36190;54.980;73.388;2023-04-16T14:04:14;9.85;;;3.28;;
50291;SDS011;36190;54.980;73.388;2023-04-16T14:06:42;8.80;;;3.50;;
50291;SDS011;36190;54.980;73.388;2023-04-16T14:09:09;11.48;;;3.58;;
50291;SDS011;36190;54.980;73.388;2023-04-16T14:11:37;14.50;;;3.67;;
50291;SDS011;36190;54.980;73.388;2023-04-16T14:14:06;14.63;;;4.03;;
50291;SDS011;36190;54.980;73.388;2023-04-16T14:16:33;9.95;;;3.90;;
50291;SDS011;36190;54.980;73.388;2023-04-16T14:19:01;9.02;;;3.55;;
50291;SDS011;36190;54.980;73.388;2023-04-16T14:21:28;14.45;;;4.22;;
50291;SDS011;36190;54.980;73.388;2023-04-16T14:23:56;16.42;;;6.13;;
50291;SDS011;36190;54.980;73.388;2023-04-16T14:26:24;22.75;;;9.05;;
50291;SDS011;36190;54.980;73.388;2023-04-16T14:28:51;26.33;;;8.00;;
50291;SDS011;36190;54.980;73.388;2023-04-16T14:31:20;18.80;;;8.05;;
50291;SDS011;36190;54.980;73.388;2023-04-16T14:33:48;22.90;;;8.10;;
50291;SDS011;36190;54.980;73.388;2023-04-16T14:36:15;18.58;;;6.82;;
50291;SDS011;36190;54.980;73.388;2023-04-16T14:38:43;16.70;;;6.90;;
50291;SDS011;36190;54.980;73.388;2023-04-16T14:41:11;19.15;;;6.78;;